Time;durP1;ratioP1;P1;durP2;ratioP2;P2;SDS_P1;SDS_P2;PMS_P1;PMS_P2;Temp;Humidity;BMP_temperature;BMP_pressure;BME280_temperature;BME280_humidity;BME280_pressure;Samples;Min_cycle;Max_cycle;Signal;HPM_P1;HPM_P2
2022/12/08 00:00:48;;;;;;;124.57;74.17;;;;;;;;;;4359267;32;319736;-78
2022/12/08 00:03:14;;;;;;;150.50;77.70;;;;;;;;;;4369149;32;318775;-78
2022/12/08 00:11:15;;;;;;;117.80;71.27;;;;;;;;;;4383243;32;318527;-81
2022/12/08 00:13:43;;;;;;;106.50;65.07;;;;;;;;;;4364318;32;319586;-78
2022/12/08 00:16:11;;;;;;;102.97;61.40;;;;;;;;;;4371783;32;318698;-78
2022/12/08 00:18:38;;;;;;;92.00;52.07;;;;;;;;;;4357555;32;352078;-80
2022/12/08 00:21:07;;;;;;;82.50;47.80;;;;;;;;;;4351720;32;317986;-80
2022/12/08 00:23:34;;;;;;;86.83;49.23;;;;;;;;;;4358000;32;318710;-78
2022/12/08 00:26:05;;;;;;;76.93;50.53;;;;;;;;;;4368552;32;318038;-80
2022/12/08 00:28:33;;;;;;;86.93;51.47;;;;;;;;;;4359474;32;318243;-80
2022/12/08 00:31:00;;;;;;;71.77;45.57;;;;;;;;;;4369536;32;318542;-77
2022/12/08 00:33:29;;;;;;;66.23;37.30;;;;;;;;;;4369330;32;317678;-80
2022/12/08 00:35:55;;;;;;;56.83;35.50;;;;;;;;;;4356501;32;417930;-78
2022/12/08 00:38:22;;;;;;;76.50;46.27;;;;;;;;;;4368320;32;318356;-78
2022/12/08 00:40:49;;;;;;;81.43;49.10;;;;;;;;;;4351919;32;318628;-79
2022/12/08 00:43:16;;;;;;;66.33;42.00;;;;;;;;;;4353036;32;317575;-80
2022/12/08 00:45:43;;;;;;;67.03;37.63;;;;;;;;;;4344595;32;318744;-77
2022/12/08 00:48:10;;;;;;;67.33;35.53;;;;;;;;;;4354150;32;318328;-79
2022/12/08 00:50:38;;;;;;;58.73;37.17;;;;;;;;;;4344133;32;317778;-80
2022/12/08 00:53:05;;;;;;;61.93;38.27;;;;;;;;;;4353991;32;318249;-77
2022/12/08 00:55:31;;;;;;;62.80;37.70;;;;;;;;;;4355361;32;318359;-77
2022/12/08 00:57:58;;;;;;;70.53;42.30;;;;;;;;;;4367136;32;317819;-78
2022/12/08 01:00:25;;;;;;;82.87;46.87;;;;;;;;;;4368229;32;346419;-80
2022/12/08 01:02:52;;;;;;;83.27;46.40;;;;;;;;;;4356372;32;417578;-78
2022/12/08 01:05:19;;;;;;;89.37;48.83;;;;;;;;;;4367389;32;318036;-80
2022/12/08 01:07:48;;;;;;;95.77;52.63;;;;;;;;;;4358694;32;318225;-78
2022/12/08 01:10:15;;;;;;;63.93;39.97;;;;;;;;;;4368399;32;317668;-78
2022/12/08 01:12:42;;;;;;;61.60;36.57;;;;;;;;;;4358835;32;318306;-78
2022/12/08 01:15:09;;;;;;;65.33;39.33;;;;;;;;;;4368735;32;317592;-81
2022/12/08 01:17:37;;;;;;;54.37;35.73;;;;;;;;;;4358886;32;318256;-79
2022/12/08 01:20:05;;;;;;;65.07;36.53;;;;;;;;;;4368088;32;318623;-81
2022/12/08 01:22:33;;;;;;;72.27;38.90;;;;;;;;;;4357943;32;318297;-79
2022/12/08 01:25:02;;;;;;;83.43;41.30;;;;;;;;;;4352271;32;317510;-79
2022/12/08 01:27:29;;;;;;;85.43;43.13;;;;;;;;;;4343714;32;317608;-80
2022/12/08 01:29:55;;;;;;;92.73;45.10;;;;;;;;;;4340099;32;318195;-80
2022/12/08 01:32:22;;;;;;;81.80;45.23;;;;;;;;;;4352649;32;318646;-77
2022/12/08 01:34:49;;;;;;;78.60;42.30;;;;;;;;;;4343590;32;318207;-79
2022/12/08 01:37:16;;;;;;;81.27;40.37;;;;;;;;;;4353104;32;318657;-83
2022/12/08 01:39:43;;;;;;;90.00;50.33;;;;;;;;;;4342549;32;347916;-79
2022/12/08 01:42:19;;;;;;;84.63;45.67;;;;;;;;;;4367850;32;318278;-77
2022/12/08 01:44:54;;;;;;;77.83;44.30;;;;;;;;;;4357139;32;317532;-77
2022/12/08 01:47:24;;;;;;;72.50;43.13;;;;;;;;;;4367308;32;318221;-82
2022/12/08 01:49:51;;;;;;;62.37;37.73;;;;;;;;;;4358185;32;322112;-81
2022/12/08 01:52:23;;;;;;;73.13;40.23;;;;;;;;;;4367945;32;317470;-81
2022/12/08 01:54:53;;;;;;;82.03;40.57;;;;;;;;;;4356589;32;318179;-78
2022/12/08 01:57:25;;;;;;;65.23;40.27;;;;;;;;;;4354531;32;317611;-81
2022/12/08 01:59:58;;;;;;;73.80;40.50;;;;;;;;;;4344803;32;318011;-78
2022/12/08 02:02:29;;;;;;;66.87;39.17;;;;;;;;;;4368377;32;317369;-78
2022/12/08 02:04:56;;;;;;;79.93;41.77;;;;;;;;;;4354622;32;416683;-80
2022/12/08 02:07:23;;;;;;;64.70;38.27;;;;;;;;;;4367531;32;317590;-81
2022/12/08 02:09:51;;;;;;;61.00;35.07;;;;;;;;;;4356387;32;335866;-78
2022/12/08 02:12:17;;;;;;;65.53;35.10;;;;;;;;;;4368065;32;318574;-82
2022/12/08 02:14:46;;;;;;;55.77;32.33;;;;;;;;;;4356857;32;318212;-82
2022/12/08 02:17:27;;;;;;;61.33;35.03;;;;;;;;;;4367631;32;318301;-80
2022/12/08 02:20:17;;;;;;;74.20;42.30;;;;;;;;;;4355230;32;418695;-81
2022/12/08 02:22:51;;;;;;;78.67;44.67;;;;;;;;;;4354605;32;318191;-78
2022/12/08 02:25:28;;;;;;;65.47;39.57;;;;;;;;;;4351725;32;318280;-80
2022/12/08 02:28:03;;;;;;;64.60;36.93;;;;;;;;;;4339213;32;417874;-80
2022/12/08 02:30:42;;;;;;;48.40;33.03;;;;;;;;;;4341996;32;318151;-78
2022/12/08 02:33:54;;;;;;;59.87;33.07;;;;;;;;;;4354729;32;318160;-77
2022/12/08 02:36:25;;;;;;;41.73;30.67;;;;;;;;;;4341897;32;418226;-79
2022/12/08 02:39:02;;;;;;;56.23;30.80;;;;;;;;;;4344952;32;318574;-82
2022/12/08 02:41:37;;;;;;;55.07;32.17;;;;;;;;;;4355119;32;318552;-79
2022/12/08 02:44:12;;;;;;;48.03;29.60;;;;;;;;;;4369738;32;318280;-82
2022/12/08 02:46:44;;;;;;;62.20;36.00;;;;;;;;;;4361114;32;317712;-79
2022/12/08 02:49:14;;;;;;;53.03;29.57;;;;;;;;;;4369948;32;317769;-78
2022/12/08 02:51:42;;;;;;;64.53;35.83;;;;;;;;;;4358917;32;318170;-81
2022/12/08 02:54:09;;;;;;;74.83;40.57;;;;;;;;;;4370559;32;317534;-81
2022/12/08 02:57:06;;;;;;;68.30;39.83;;;;;;;;;;4359514;32;323033;-80
2022/12/08 02:59:49;;;;;;;63.10;37.43;;;;;;;;;;4359615;32;318402;-79
2022/12/08 03:02:35;;;;;;;60.60;37.73;;;;;;;;;;4370807;32;318234;-78
2022/12/08 03:05:10;;;;;;;63.67;35.90;;;;;;;;;;4356766;32;419713;-78
2022/12/08 03:07:44;;;;;;;60.50;37.43;;;;;;;;;;4360326;32;318168;-78
2022/12/08 03:10:15;;;;;;;69.17;40.53;;;;;;;;;;4355434;32;318318;-82
2022/12/08 03:12:47;;;;;;;75.47;41.20;;;;;;;;;;4345789;32;318409;-83
2022/12/08 03:15:18;;;;;;;80.03;41.40;;;;;;;;;;4354294;32;318377;-78
2022/12/08 03:17:51;;;;;;;67.73;40.47;;;;;;;;;;4345820;32;318768;-84
2022/12/08 03:20:21;;;;;;;68.40;39.93;;;;;;;;;;4355340;32;317536;-83
2022/12/08 03:22:52;;;;;;;73.87;42.87;;;;;;;;;;4346836;32;317416;-77
2022/12/08 03:25:22;;;;;;;72.60;42.23;;;;;;;;;;4369183;32;318102;-81
2022/12/08 03:27:50;;;;;;;71.73;41.53;;;;;;;;;;4359786;32;318188;-79
2022/12/08 03:30:17;;;;;;;69.17;41.67;;;;;;;;;;4370173;32;318526;-81
2022/12/08 03:32:51;;;;;;;74.23;43.77;;;;;;;;;;4360431;32;317598;-80
2022/12/08 03:35:22;;;;;;;77.93;45.00;;;;;;;;;;4369234;32;318166;-80
2022/12/08 03:37:50;;;;;;;80.57;42.80;;;;;;;;;;4360226;32;317671;-79
2022/12/08 03:40:20;;;;;;;69.57;40.60;;;;;;;;;;4365427;32;331368;-81
2022/12/08 03:42:47;;;;;;;72.80;42.20;;;;;;;;;;4345050;32;317680;-78
2022/12/08 03:45:14;;;;;;;70.80;41.03;;;;;;;;;;4353924;32;358399;-80
2022/12/08 03:47:41;;;;;;;111.13;59.80;;;;;;;;;;4343946;32;318329;-80
2022/12/08 03:50:08;;;;;;;150.40;73.33;;;;;;;;;;4355511;32;319184;-85
2022/12/08 03:52:35;;;;;;;146.47;77.00;;;;;;;;;;4344002;32;335910;-80
2022/12/08 03:55:03;;;;;;;130.47;71.03;;;;;;;;;;4369529;32;318565;-82
2022/12/08 03:57:30;;;;;;;121.30;68.70;;;;;;;;;;4370727;32;318645;-78
2022/12/08 03:59:57;;;;;;;123.67;67.40;;;;;;;;;;4379792;32;319012;-82
2022/12/08 04:02:24;;;;;;;108.40;59.90;;;;;;;;;;4378980;32;319615;-79
2022/12/08 04:04:50;;;;;;;99.57;56.17;;;;;;;;;;4367321;32;318669;-79
2022/12/08 04:07:17;;;;;;;98.23;56.27;;;;;;;;;;4374249;32;327471;-80
2022/12/08 04:09:44;;;;;;;94.93;54.57;;;;;;;;;;4359817;32;318469;-77
2022/12/08 04:12:12;;;;;;;103.87;56.20;;;;;;;;;;4368056;32;342511;-80
2022/12/08 04:14:39;;;;;;;124.80;63.37;;;;;;;;;;4358765;32;319210;-80
2022/12/08 04:17:06;;;;;;;120.30;60.53;;;;;;;;;;4369761;32;318813;-82
2022/12/08 04:19:40;;;;;;;111.03;56.70;;;;;;;;;;4359115;32;319476;-81
2022/12/08 04:22:07;;;;;;;110.80;58.37;;;;;;;;;;4369154;32;318797;-81
2022/12/08 04:24:34;;;;;;;120.87;63.40;;;;;;;;;;4346008;32;319297;-80
2022/12/08 04:27:00;;;;;;;131.17;69.07;;;;;;;;;;4353211;32;319586;-78
2022/12/08 04:29:28;;;;;;;132.20;66.10;;;;;;;;;;4354275;32;318485;-81
2022/12/08 04:31:55;;;;;;;152.63;72.13;;;;;;;;;;4340300;32;418852;-79
2022/12/08 04:34:22;;;;;;;140.87;72.03;;;;;;;;;;4354313;32;319208;-81
2022/12/08 04:36:49;;;;;;;143.93;70.13;;;;;;;;;;4344247;32;318772;-77
2022/12/08 04:39:15;;;;;;;151.17;70.87;;;;;;;;;;4353069;32;319675;-80
2022/12/08 04:41:42;;;;;;;139.67;71.53;;;;;;;;;;4354882;32;319519;-81
2022/12/08 04:44:09;;;;;;;134.43;63.53;;;;;;;;;;4358043;32;319466;-80
2022/12/08 04:46:37;;;;;;;141.83;70.57;;;;;;;;;;4342858;32;318829;-82
2022/12/08 04:49:04;;;;;;;137.07;68.10;;;;;;;;;;4353852;32;319413;-79
2022/12/08 04:51:30;;;;;;;142.17;70.63;;;;;;;;;;4343697;32;319758;-81
2022/12/08 04:53:57;;;;;;;134.80;69.20;;;;;;;;;;4354163;32;319005;-80
2022/12/08 04:56:24;;;;;;;126.23;66.77;;;;;;;;;;4368196;32;319169;-82
2022/12/08 04:58:51;;;;;;;138.80;66.77;;;;;;;;;;4358967;32;319715;-81
2022/12/08 05:01:20;;;;;;;124.73;67.80;;;;;;;;;;4368008;32;318898;-79
2022/12/08 05:03:48;;;;;;;124.20;64.07;;;;;;;;;;4358874;32;318964;-77
2022/12/08 05:06:15;;;;;;;102.83;56.70;;;;;;;;;;4367820;32;318858;-84
2022/12/08 05:08:42;;;;;;;112.53;60.37;;;;;;;;;;4350062;32;319299;-78
2022/12/08 05:11:11;;;;;;;102.10;56.03;;;;;;;;;;4353462;32;319139;-77
2022/12/08 05:13:38;;;;;;;102.33;53.20;;;;;;;;;;4343847;32;319927;-79
2022/12/08 05:16:06;;;;;;;87.83;52.57;;;;;;;;;;4352456;32;318600;-79
2022/12/08 05:18:33;;;;;;;94.13;53.33;;;;;;;;;;4343957;32;318244;-82
2022/12/08 05:21:01;;;;;;;105.87;61.67;;;;;;;;;;4353557;32;317410;-80
2022/12/08 05:23:28;;;;;;;101.53;60.87;;;;;;;;;;4347798;32;371980;-81
2022/12/08 05:25:55;;;;;;;101.87;59.50;;;;;;;;;;4368477;32;319248;-82
2022/12/08 05:28:22;;;;;;;92.80;54.80;;;;;;;;;;4368481;32;319304;-79
2022/12/08 05:30:49;;;;;;;110.23;57.93;;;;;;;;;;4358631;32;317609;-79
2022/12/08 05:33:16;;;;;;;106.47;59.37;;;;;;;;;;4366916;32;318932;-79
2022/12/08 05:35:42;;;;;;;97.70;58.40;;;;;;;;;;4356537;32;318791;-81
2022/12/08 05:38:12;;;;;;;117.40;63.43;;;;;;;;;;4366467;32;318241;-81
2022/12/08 05:40:40;;;;;;;116.43;62.47;;;;;;;;;;4357440;32;319549;-79
2022/12/08 05:43:07;;;;;;;114.03;65.73;;;;;;;;;;4367910;32;318521;-79
2022/12/08 05:45:34;;;;;;;96.47;57.43;;;;;;;;;;4357863;32;318819;-82
2022/12/08 05:48:01;;;;;;;104.73;61.50;;;;;;;;;;4367723;32;317730;-83
2022/12/08 05:50:28;;;;;;;99.27;59.00;;;;;;;;;;4364508;32;318587;-84
2022/12/08 05:52:56;;;;;;;113.20;63.03;;;;;;;;;;4367522;32;317779;-79
2022/12/08 05:55:24;;;;;;;107.67;61.43;;;;;;;;;;4366651;32;318802;-82
2022/12/08 05:57:50;;;;;;;112.40;62.03;;;;;;;;;;4356751;32;319408;-81
2022/12/08 06:00:18;;;;;;;104.30;59.87;;;;;;;;;;4366244;32;318450;-80
2022/12/08 06:02:46;;;;;;;106.47;59.43;;;;;;;;;;4358051;32;319217;-79
2022/12/08 06:05:14;;;;;;;110.00;60.23;;;;;;;;;;4366382;32;319393;-77
2022/12/08 06:07:40;;;;;;;129.30;70.87;;;;;;;;;;4355944;32;319515;-79
2022/12/08 06:10:08;;;;;;;153.10;85.60;;;;;;;;;;4367314;32;318439;-80
2022/12/08 06:12:36;;;;;;;163.70;92.67;;;;;;;;;;4357085;32;318845;-77
2022/12/08 06:15:03;;;;;;;178.07;95.43;;;;;;;;;;4366697;32;318719;-81
2022/12/08 06:17:30;;;;;;;173.80;92.97;;;;;;;;;;4354546;32;319328;-78
2022/12/08 06:19:57;;;;;;;181.20;97.40;;;;;;;;;;4367481;32;319104;-83
2022/12/08 06:22:24;;;;;;;173.43;99.10;;;;;;;;;;4367758;32;318737;-82
2022/12/08 06:24:50;;;;;;;191.13;108.20;;;;;;;;;;4340255;32;319314;-86
2022/12/08 06:27:17;;;;;;;198.70;108.77;;;;;;;;;;4351152;32;337231;-80
2022/12/08 06:29:45;;;;;;;170.63;90.37;;;;;;;;;;4341120;32;320383;-82
2022/12/08 06:32:12;;;;;;;181.10;99.83;;;;;;;;;;4351991;32;318584;-87
2022/12/08 06:34:39;;;;;;;167.57;97.50;;;;;;;;;;4342574;32;319403;-87
2022/12/08 06:37:05;;;;;;;159.33;92.03;;;;;;;;;;4362960;32;318601;-82
2022/12/08 06:39:32;;;;;;;166.37;95.70;;;;;;;;;;4354763;32;382561;-79
2022/12/08 06:44:47;;;;;;;168.57;90.10;;;;;;;;;;4348043;32;318748;-84
2022/12/08 06:47:13;;;;;;;141.90;80.37;;;;;;;;;;4366445;32;318805;-83
2022/12/08 06:49:40;;;;;;;155.37;96.63;;;;;;;;;;4355978;32;349303;-80
2022/12/08 06:52:07;;;;;;;166.70;96.43;;;;;;;;;;4368408;32;319265;-84
2022/12/08 06:54:34;;;;;;;189.20;112.07;;;;;;;;;;4358186;32;319233;-90
2022/12/08 06:57:02;;;;;;;214.27;131.20;;;;;;;;;;4367856;32;319724;-89
2022/12/08 06:59:30;;;;;;;208.20;126.30;;;;;;;;;;4357611;32;319659;-91
2022/12/08 07:01:58;;;;;;;224.23;140.73;;;;;;;;;;4358122;32;319739;-91
2022/12/08 07:04:25;;;;;;;229.13;146.80;;;;;;;;;;4363836;32;320521;-90
2022/12/08 07:06:52;;;;;;;287.07;170.57;;;;;;;;;;4339553;32;321188;-78
2022/12/08 07:09:18;;;;;;;263.07;152.80;;;;;;;;;;4353318;32;319859;-79
2022/12/08 07:11:45;;;;;;;234.90;139.87;;;;;;;;;;4355304;32;319715;-87
2022/12/08 07:14:12;;;;;;;166.33;103.57;;;;;;;;;;4365962;32;320561;-89
2022/12/08 07:16:39;;;;;;;148.73;95.10;;;;;;;;;;4355642;32;320181;-82
2022/12/08 07:19:07;;;;;;;112.97;75.83;;;;;;;;;;4355013;32;319328;-82
2022/12/08 07:21:34;;;;;;;117.67;74.43;;;;;;;;;;4343308;32;318809;-79
2022/12/08 07:24:07;;;;;;;109.00;71.13;;;;;;;;;;4353674;32;318590;-86
2022/12/08 07:26:34;;;;;;;110.77;68.73;;;;;;;;;;4346210;32;319303;-78
2022/12/08 07:29:01;;;;;;;191.27;108.40;;;;;;;;;;4353884;32;319380;-80
2022/12/08 07:31:28;;;;;;;107.60;68.97;;;;;;;;;;4347411;32;320703;-86
2022/12/08 07:33:56;;;;;;;102.37;63.10;;;;;;;;;;4362945;32;318975;-91
2022/12/08 07:36:24;;;;;;;111.80;63.07;;;;;;;;;;4362216;32;318663;-79
2022/12/08 07:38:53;;;;;;;110.33;67.47;;;;;;;;;;4343407;32;348474;-87
2022/12/08 07:41:21;;;;;;;115.57;69.50;;;;;;;;;;4363490;32;318537;-81
2022/12/08 07:43:48;;;;;;;134.63;77.53;;;;;;;;;;4373059;32;319238;-80
2022/12/08 07:46:17;;;;;;;81.77;53.63;;;;;;;;;;4381334;32;317959;-91
2022/12/08 07:48:45;;;;;;;81.30;54.43;;;;;;;;;;4371950;32;316469;-85
2022/12/08 07:51:12;;;;;;;81.10;52.37;;;;;;;;;;4383254;32;317214;-88
2022/12/08 07:53:41;;;;;;;97.43;58.30;;;;;;;;;;4357398;32;317472;-83
2022/12/08 07:56:09;;;;;;;87.57;55.50;;;;;;;;;;4367453;32;318175;-84
2022/12/08 07:58:36;;;;;;;126.70;68.87;;;;;;;;;;4344917;32;318117;-79
2022/12/08 08:01:03;;;;;;;103.03;65.57;;;;;;;;;;4358494;32;319344;-82
2022/12/08 08:03:30;;;;;;;103.50;65.20;;;;;;;;;;4354304;32;319452;-80
2022/12/08 08:06:02;;;;;;;87.13;56.17;;;;;;;;;;4367662;32;318584;-83
2022/12/08 08:08:29;;;;;;;109.13;65.77;;;;;;;;;;4357813;32;317611;-80
2022/12/08 08:10:58;;;;;;;103.97;61.17;;;;;;;;;;4366917;32;320084;-84
2022/12/08 08:13:25;;;;;;;100.30;63.80;;;;;;;;;;4368145;32;317613;-82
2022/12/08 08:15:51;;;;;;;102.07;64.03;;;;;;;;;;4357731;32;320703;-83
2022/12/08 08:18:18;;;;;;;97.17;60.20;;;;;;;;;;4368459;32;320332;-80
2022/12/08 08:20:47;;;;;;;80.93;52.00;;;;;;;;;;4345490;32;318546;-82
2022/12/08 08:23:14;;;;;;;92.93;53.80;;;;;;;;;;4367562;32;319196;-84
2022/12/08 08:25:40;;;;;;;98.10;58.13;;;;;;;;;;4355901;32;351187;-81
2022/12/08 08:28:08;;;;;;;96.80;55.07;;;;;;;;;;4357800;32;318648;-81
2022/12/08 08:30:35;;;;;;;110.53;61.90;;;;;;;;;;4354814;32;330060;-80
2022/12/08 08:33:02;;;;;;;94.63;60.10;;;;;;;;;;4366412;32;319613;-80
2022/12/08 08:35:29;;;;;;;80.73;52.10;;;;;;;;;;4368965;32;319441;-83
2022/12/08 08:37:56;;;;;;;75.90;48.40;;;;;;;;;;4381268;32;319463;-80
2022/12/08 08:40:23;;;;;;;72.63;45.07;;;;;;;;;;4377818;32;319241;-80
2022/12/08 08:42:50;;;;;;;73.43;48.97;;;;;;;;;;4357532;32;318595;-79
2022/12/08 08:45:18;;;;;;;84.87;52.33;;;;;;;;;;4367786;32;319316;-81
2022/12/08 08:47:45;;;;;;;84.53;50.67;;;;;;;;;;4357569;32;319686;-82
2022/12/08 08:50:12;;;;;;;104.40;57.53;;;;;;;;;;4367029;32;319556;-81
2022/12/08 08:52:38;;;;;;;103.57;57.90;;;;;;;;;;4356588;32;320346;-83
2022/12/08 08:55:06;;;;;;;66.13;43.60;;;;;;;;;;4367193;32;319728;-80
2022/12/08 08:57:33;;;;;;;69.07;40.30;;;;;;;;;;4357767;32;319211;-84
2022/12/08 09:00:00;;;;;;;69.97;46.03;;;;;;;;;;4366117;32;319443;-80
2022/12/08 09:02:28;;;;;;;70.10;43.60;;;;;;;;;;4350970;32;354344;-83
2022/12/08 09:04:54;;;;;;;69.10;43.13;;;;;;;;;;4338573;32;418674;-85
2022/12/08 09:07:21;;;;;;;76.87;47.87;;;;;;;;;;4357176;32;318525;-81
2022/12/08 09:09:48;;;;;;;80.37;50.17;;;;;;;;;;4349110;32;319428;-82
2022/12/08 09:12:15;;;;;;;458.30;194.83;;;;;;;;;;4351340;32;319296;-82
2022/12/08 09:14:42;;;;;;;89.33;51.77;;;;;;;;;;4340690;32;321187;-81
2022/12/08 09:17:09;;;;;;;163.93;71.67;;;;;;;;;;4351127;32;319308;-81
2022/12/08 09:19:37;;;;;;;176.07;75.97;;;;;;;;;;4342310;32;320314;-83
2022/12/08 09:22:05;;;;;;;73.67;43.67;;;;;;;;;;4352364;32;320234;-80
2022/12/08 09:24:32;;;;;;;72.47;37.53;;;;;;;;;;4343141;32;323358;-83
2022/12/08 09:26:59;;;;;;;55.10;34.60;;;;;;;;;;4366832;32;318558;-86
2022/12/08 09:29:27;;;;;;;48.17;31.87;;;;;;;;;;4367145;32;340227;-83
2022/12/08 09:31:54;;;;;;;63.67;37.17;;;;;;;;;;4355174;32;420275;-80
2022/12/08 09:34:21;;;;;;;48.33;32.23;;;;;;;;;;4367495;32;319103;-83
2022/12/08 09:36:49;;;;;;;47.67;33.53;;;;;;;;;;4357290;32;318821;-81
2022/12/08 09:39:16;;;;;;;46.07;34.23;;;;;;;;;;4367723;32;318691;-83
2022/12/08 09:41:47;;;;;;;65.67;35.80;;;;;;;;;;4341281;32;319277;-81
2022/12/08 09:44:40;;;;;;;36.33;23.73;;;;;;;;;;4357251;32;319551;-85
2022/12/08 09:47:18;;;;;;;45.03;24.53;;;;;;;;;;4340118;32;418297;-82
2022/12/08 09:49:54;;;;;;;40.47;22.93;;;;;;;;;;4342740;32;319506;-84
2022/12/08 09:52:26;;;;;;;51.67;30.97;;;;;;;;;;4351872;32;318768;-83
2022/12/08 09:54:59;;;;;;;39.67;28.77;;;;;;;;;;4340989;32;419759;-83
2022/12/08 09:57:26;;;;;;;40.50;28.10;;;;;;;;;;4367744;32;319393;-83
2022/12/08 09:59:58;;;;;;;33.07;21.27;;;;;;;;;;4347780;32;418401;-81
2022/12/08 10:02:26;;;;;;;171.90;76.73;;;;;;;;;;4344463;32;319322;-84
2022/12/08 10:04:56;;;;;;;46.07;27.73;;;;;;;;;;4342201;32;319759;-84
2022/12/08 10:07:33;;;;;;;31.33;22.57;;;;;;;;;;4369009;32;319604;-82
2022/12/08 10:10:05;;;;;;;30.60;21.70;;;;;;;;;;4342986;32;418919;-80
2022/12/08 10:12:42;;;;;;;27.10;21.00;;;;;;;;;;4365265;32;318729;-82
2022/12/08 10:15:26;;;;;;;35.93;23.60;;;;;;;;;;4358321;32;318806;-87
2022/12/08 10:17:54;;;;;;;38.30;24.37;;;;;;;;;;4359244;32;418030;-82
2022/12/08 10:20:24;;;;;;;40.13;25.70;;;;;;;;;;4356197;32;319196;-82
2022/12/08 10:23:05;;;;;;;37.30;24.67;;;;;;;;;;4340333;32;349188;-84
2022/12/08 10:25:38;;;;;;;34.30;24.03;;;;;;;;;;4368497;32;319510;-86
2022/12/08 10:28:05;;;;;;;35.70;23.93;;;;;;;;;;4382422;32;319412;-84
2022/12/08 10:30:31;;;;;;;37.67;26.67;;;;;;;;;;4371087;32;348108;-83
2022/12/08 10:32:58;;;;;;;38.60;25.33;;;;;;;;;;4382432;32;318823;-84
2022/12/08 10:35:43;;;;;;;48.03;28.83;;;;;;;;;;4382253;32;318937;-84
2022/12/08 10:38:17;;;;;;;51.53;30.43;;;;;;;;;;4369839;32;420349;-84
2022/12/08 10:40:47;;;;;;;57.77;34.00;;;;;;;;;;4344769;32;319536;-81
2022/12/08 10:43:17;;;;;;;38.60;26.77;;;;;;;;;;4355398;32;318826;-83
2022/12/08 10:45:44;;;;;;;99.33;51.57;;;;;;;;;;4356729;32;319545;-80
2022/12/08 10:48:17;;;;;;;49.53;29.53;;;;;;;;;;4366543;32;319551;-81
2022/12/08 10:50:47;;;;;;;43.37;27.80;;;;;;;;;;4348661;32;319944;-82
2022/12/08 10:53:21;;;;;;;44.93;26.90;;;;;;;;;;4366705;32;319234;-78
2022/12/08 10:55:50;;;;;;;40.35;25.95;;;;;;;;;;4357902;32;354656;-85
2022/12/08 10:58:40;;;;;;;43.40;26.83;;;;;;;;;;4360932;32;318941;-79
2022/12/08 11:01:13;;;;;;;46.13;27.20;;;;;;;;;;4330441;32;419616;-83
2022/12/08 11:03:45;;;;;;;44.80;29.17;;;;;;;;;;4345258;32;319879;-78
2022/12/08 11:06:17;;;;;;;45.03;25.37;;;;;;;;;;4361396;32;319452;-84
2022/12/08 11:08:50;;;;;;;36.97;25.37;;;;;;;;;;4352986;32;319043;-80
2022/12/08 11:11:19;;;;;;;66.80;33.60;;;;;;;;;;4370181;32;319297;-81
2022/12/08 11:13:48;;;;;;;49.40;28.63;;;;;;;;;;4346531;32;350958;-79
2022/12/08 11:16:16;;;;;;;36.00;20.17;;;;;;;;;;4362695;32;319820;-81
2022/12/08 11:18:46;;;;;;;31.43;18.20;;;;;;;;;;4345852;32;319311;-80
2022/12/08 11:21:16;;;;;;;36.37;16.87;;;;;;;;;;4357549;32;319514;-81
2022/12/08 11:23:48;;;;;;;28.47;15.27;;;;;;;;;;4344207;32;319572;-82
2022/12/08 11:26:23;;;;;;;26.40;17.73;;;;;;;;;;4355143;32;319791;-82
2022/12/08 11:28:50;;;;;;;27.80;16.63;;;;;;;;;;4349268;32;319555;-81
2022/12/08 11:31:25;;;;;;;36.17;22.80;;;;;;;;;;4373694;32;319417;-82
2022/12/08 11:33:53;;;;;;;64.83;36.73;;;;;;;;;;4375964;32;318731;-79
2022/12/08 11:36:22;;;;;;;27.33;18.17;;;;;;;;;;4389852;32;318558;-83
2022/12/08 11:38:58;;;;;;;27.50;18.10;;;;;;;;;;4365936;32;317534;-81
2022/12/08 11:41:30;;;;;;;29.43;18.53;;;;;;;;;;4371738;32;319833;-82
2022/12/08 11:44:04;;;;;;;27.80;18.57;;;;;;;;;;4356520;32;418750;-80
2022/12/08 11:46:36;;;;;;;30.37;18.63;;;;;;;;;;4354122;32;319020;-82
2022/12/08 11:49:06;;;;;;;27.40;18.53;;;;;;;;;;4371310;32;319389;-81
2022/12/08 11:51:36;;;;;;;41.47;27.73;;;;;;;;;;4361042;32;319478;-78
2022/12/08 11:54:18;;;;;;;34.60;20.73;;;;;;;;;;4370043;32;318611;-83
2022/12/08 11:56:51;;;;;;;32.60;19.30;;;;;;;;;;4370067;32;319517;-79
2022/12/08 11:59:24;;;;;;;38.23;23.73;;;;;;;;;;4386936;32;326172;-80
2022/12/08 12:01:51;;;;;;;53.10;27.97;;;;;;;;;;4373621;32;319412;-81
2022/12/08 12:04:24;;;;;;;42.77;25.10;;;;;;;;;;4381973;32;319576;-82
2022/12/08 12:07:16;;;;;;;38.93;25.80;;;;;;;;;;4373274;32;319402;-82
2022/12/08 12:09:59;;;;;;;53.03;35.53;;;;;;;;;;4374970;32;319593;-81
2022/12/08 12:12:39;;;;;;;54.70;31.87;;;;;;;;;;4371954;32;318898;-82
2022/12/08 12:15:36;;;;;;;40.93;25.83;;;;;;;;;;4341760;32;419504;-82
2022/12/08 12:18:08;;;;;;;39.20;26.20;;;;;;;;;;4341112;32;419441;-82
2022/12/08 12:20:38;;;;;;;43.93;23.97;;;;;;;;;;4351442;32;319526;-79
2022/12/08 12:23:08;;;;;;;27.63;21.73;;;;;;;;;;4368205;32;318681;-83
2022/12/08 12:25:37;;;;;;;40.50;22.13;;;;;;;;;;4359332;32;318865;-82
2022/12/08 12:28:08;;;;;;;38.57;23.60;;;;;;;;;;4369210;32;319461;-80
2022/12/08 12:30:51;;;;;;;31.13;22.67;;;;;;;;;;4359326;32;318896;-83
2022/12/08 12:33:19;;;;;;;35.37;20.67;;;;;;;;;;4366769;32;319076;-79
2022/12/08 12:35:47;;;;;;;35.87;19.90;;;;;;;;;;4357028;32;319150;-83
2022/12/08 12:41:10;;;;;;;27.83;17.80;;;;;;;;;;4347899;32;389944;-81
2022/12/08 12:43:39;;;;;;;49.27;26.20;;;;;;;;;;4344304;32;319704;-80
2022/12/08 12:46:53;;;;;;;33.47;21.97;;;;;;;;;;4356908;32;319462;-79
2022/12/08 12:49:51;;;;;;;26.73;14.20;;;;;;;;;;4355122;32;419995;-82
2022/12/08 12:52:49;;;;;;;28.43;18.17;;;;;;;;;;4354757;32;420416;-83
2022/12/08 12:55:54;;;;;;;31.13;21.17;;;;;;;;;;4355907;32;421304;-83
2022/12/08 12:58:41;;;;;;;39.93;24.67;;;;;;;;;;4355397;32;420038;-82
2022/12/08 13:01:38;;;;;;;40.77;22.40;;;;;;;;;;4354583;32;421168;-81
2022/12/08 13:04:07;;;;;;;34.87;24.83;;;;;;;;;;4354728;32;421193;-79
2022/12/08 13:06:39;;;;;;;39.00;23.33;;;;;;;;;;4357690;32;319450;-79
2022/12/08 13:09:07;;;;;;;33.23;23.40;;;;;;;;;;4366464;32;319125;-80
2022/12/08 13:11:48;;;;;;;39.27;24.37;;;;;;;;;;4357517;32;350480;-82
2022/12/08 13:14:30;;;;;;;40.43;21.53;;;;;;;;;;4367632;32;319587;-81
2022/12/08 13:16:59;;;;;;;59.90;32.90;;;;;;;;;;4353923;32;419304;-84
2022/12/08 13:19:30;;;;;;;72.63;45.93;;;;;;;;;;4366655;32;319522;-84
2022/12/08 13:21:57;;;;;;;41.67;27.67;;;;;;;;;;4340774;32;419214;-83
2022/12/08 13:24:31;;;;;;;39.37;24.57;;;;;;;;;;4352918;32;319772;-86
2022/12/08 13:27:32;;;;;;;94.30;53.93;;;;;;;;;;4355325;32;418471;-79
2022/12/08 13:30:48;;;;;;;236.67;121.57;;;;;;;;;;4354395;32;419269;-79
2022/12/08 13:33:22;;;;;;;166.40;98.97;;;;;;;;;;4308130;33;422580;-82
2022/12/08 13:36:05;;;;;;;95.87;57.93;;;;;;;;;;4347532;32;320658;-80
2022/12/08 13:38:34;;;;;;;93.07;71.20;;;;;;;;;;4360520;32;318742;-82
2022/12/08 13:41:07;;;;;;;111.83;90.43;;;;;;;;;;4375403;32;319259;-81
2022/12/08 13:43:39;;;;;;;45.73;34.50;;;;;;;;;;4358101;32;320380;-83
2022/12/08 13:46:08;;;;;;;57.70;33.10;;;;;;;;;;4368116;32;319355;-83
2022/12/08 13:48:45;;;;;;;48.73;30.63;;;;;;;;;;4357109;32;319387;-82
2022/12/08 13:51:17;;;;;;;47.13;30.27;;;;;;;;;;4367254;32;318864;-82
2022/12/08 13:53:50;;;;;;;58.10;36.80;;;;;;;;;;4357313;32;319269;-83
2022/12/08 13:56:19;;;;;;;67.57;41.73;;;;;;;;;;4367002;32;319042;-79
2022/12/08 13:58:46;;;;;;;76.37;44.97;;;;;;;;;;4351467;32;319308;-79
2022/12/08 14:01:17;;;;;;;86.40;44.63;;;;;;;;;;4367201;32;319309;-79
2022/12/08 14:03:51;;;;;;;81.87;46.57;;;;;;;;;;4358053;32;319335;-88
2022/12/08 14:06:22;;;;;;;99.07;54.87;;;;;;;;;;4367670;32;318730;-79
2022/12/08 14:08:56;;;;;;;179.27;74.07;;;;;;;;;;4358267;32;319371;-79
2022/12/08 14:11:36;;;;;;;90.63;51.80;;;;;;;;;;4368197;32;319664;-89
2022/12/08 14:14:05;;;;;;;74.53;44.57;;;;;;;;;;4340527;32;418875;-79
2022/12/08 14:16:39;;;;;;;91.93;52.80;;;;;;;;;;4348250;32;319310;-84
2022/12/08 14:19:16;;;;;;;106.60;58.27;;;;;;;;;;4368136;32;319409;-87
2022/12/08 14:21:47;;;;;;;114.70;69.67;;;;;;;;;;4358046;32;320491;-85
2022/12/08 14:24:14;;;;;;;113.03;67.07;;;;;;;;;;4367210;32;320463;-86
2022/12/08 14:26:41;;;;;;;104.17;65.43;;;;;;;;;;4356876;32;319851;-80
2022/12/08 14:29:08;;;;;;;114.93;70.00;;;;;;;;;;4365500;32;320382;-90